Time;durP1;ratioP1;P1;durP2;ratioP2;P2;SDS_P1;SDS_P2;PMS_P1;PMS_P2;Temp;Humidity;BMP_temperature;BMP_pressure;BME280_temperature;BME280_humidity;BME280_pressure;Samples;Min_cycle;Max_cycle;Signal;HPM_P1;HPM_P2
2023/03/09 00:00:40;;;;;;;22.87;18.97;;;;;20.10;97839.00;;;;2063878;28;20211;-75
2023/03/09 00:01:40;;;;;;;22.20;17.47;;;;;20.20;97861.00;;;;2063702;28;20210;-75
2023/03/09 00:02:40;;;;;;;22.33;17.70;;;;;20.10;97863.00;;;;2063782;28;20223;-75
2023/03/09 00:03:41;;;;;;;21.23;17.50;;;;;20.20;97868.00;;;;2063706;28;20215;-75
2023/03/09 00:04:41;;;;;;;21.20;17.40;;;;;20.10;97865.00;;;;2063755;28;20214;-75
2023/03/09 00:05:43;;;;;;;21.80;18.27;;;;;20.10;97869.00;;;;2063727;28;20218;-75
2023/03/09 00:06:43;;;;;;;20.50;16.50;;;;;20.10;97869.00;;;;2063681;28;20218;-75
2023/03/09 00:07:43;;;;;;;21.87;17.33;;;;;20.10;97871.00;;;;2063513;28;20587;-76
2023/03/09 00:08:44;;;;;;;22.07;18.03;;;;;20.10;97871.00;;;;2063480;28;20246;-75
2023/03/09 00:09:44;;;;;;;20.40;17.70;;;;;20.10;97866.00;;;;2063792;28;20265;-75
2023/03/09 00:10:45;;;;;;;21.90;16.90;;;;;20.10;97868.00;;;;2063662;28;20215;-75
2023/03/09 00:11:47;;;;;;;18.47;16.57;;;;;20.10;97865.00;;;;2063893;28;20298;-75
2023/03/09 00:12:47;;;;;;;19.50;15.73;;;;;20.10;97869.00;;;;2063660;28;20289;-76
2023/03/09 00:13:48;;;;;;;17.67;15.77;;;;;20.10;97870.00;;;;2063659;28;20207;-75
2023/03/09 00:14:54;;;;;;;21.13;16.50;;;;;20.10;97863.00;;;;2063893;28;20222;-75
2023/03/09 00:15:54;;;;;;;18.52;16.00;;;;;20.10;97865.00;;;;2063244;28;20458;-75
2023/03/09 00:16:55;;;;;;;15.77;14.17;;;;;20.00;97869.00;;;;2063661;28;20227;-75
2023/03/09 00:17:55;;;;;;;17.00;14.63;;;;;20.10;97864.00;;;;2063350;28;20265;-75
2023/03/09 00:18:57;;;;;;;18.30;14.97;;;;;20.10;97872.00;;;;2063606;28;20246;-76
2023/03/09 00:20:14;;;;;;;16.42;14.70;;;;;20.10;97876.00;;;;2063855;28;20250;-75
2023/03/09 00:21:25;;;;;;;17.30;14.48;;;;;20.10;97882.00;;;;2063579;28;20218;-75
2023/03/09 00:22:25;;;;;;;15.68;13.98;;;;;20.00;97878.00;;;;2063761;28;20310;-75
2023/03/09 00:23:26;;;;;;;17.20;14.67;;;;;20.00;97886.00;;;;2063589;28;20628;-75
2023/03/09 00:24:27;;;;;;;17.30;14.60;;;;;20.00;97892.00;;;;2063704;28;20257;-75
2023/03/09 00:25:28;;;;;;;17.10;13.77;;;;;20.00;97891.00;;;;2063713;28;25973;-75
2023/03/09 00:26:28;;;;;;;14.90;13.20;;;;;20.00;97898.00;;;;2063686;28;20446;-75
2023/03/09 00:27:29;;;;;;;16.13;13.43;;;;;20.00;97900.00;;;;2063492;28;20214;-75
2023/03/09 00:28:29;;;;;;;14.30;12.80;;;;;20.00;97896.00;;;;2063366;28;20707;-75
2023/03/09 00:29:30;;;;;;;15.80;13.20;;;;;20.00;97886.00;;;;2063491;28;20675;-75
2023/03/09 00:30:30;;;;;;;15.07;13.20;;;;;20.00;97887.00;;;;2063672;28;20221;-75
2023/03/09 00:31:30;;;;;;;13.43;12.03;;;;;20.00;97881.00;;;;2055093;28;20215;-75
2023/03/09 00:32:31;;;;;;;15.07;13.30;;;;;19.90;97887.00;;;;2047144;28;20314;-75
2023/03/09 00:33:31;;;;;;;15.27;12.30;;;;;20.00;97880.00;;;;2054985;28;20211;-75
2023/03/09 00:34:31;;;;;;;14.33;12.83;;;;;19.90;97888.00;;;;2063388;28;20207;-75
2023/03/09 00:35:34;;;;;;;14.83;12.23;;;;;20.00;97890.00;;;;2063654;28;20289;-75
2023/03/09 00:36:35;;;;;;;13.82;12.27;;;;;20.00;97887.00;;;;2063019;28;20222;-75
2023/03/09 00:37:37;;;;;;;13.47;11.80;;;;;20.00;97886.00;;;;2063576;28;20221;-75
2023/03/09 00:38:37;;;;;;;13.55;11.73;;;;;20.00;97893.00;;;;2063429;28;20258;-75
2023/03/09 00:39:38;;;;;;;12.73;10.90;;;;;20.00;97893.00;;;;2063729;28;20219;-75
2023/03/09 00:40:38;;;;;;;15.00;11.90;;;;;19.90;97892.00;;;;2063573;28;20222;-75
2023/03/09 00:41:39;;;;;;;13.00;11.00;;;;;19.90;97896.00;;;;2063561;28;20226;-75
2023/03/09 00:42:41;;;;;;;13.40;12.03;;;;;19.90;97850.00;;;;2063508;28;20207;-75
2023/03/09 00:43:41;;;;;;;14.13;11.20;;;;;19.90;97893.00;;;;2054957;28;20710;-75
2023/03/09 00:44:42;;;;;;;13.17;11.77;;;;;19.90;97896.00;;;;2054975;28;20221;-75
2023/03/09 00:45:42;;;;;;;11.80;10.60;;;;;19.90;97897.00;;;;2064425;28;20215;-75
2023/03/09 00:46:42;;;;;;;12.03;10.73;;;;;19.90;97888.00;;;;2063644;28;20215;-75
2023/03/09 00:47:43;;;;;;;12.17;10.97;;;;;19.90;97890.00;;;;2063730;28;20226;-75
2023/03/09 00:48:43;;;;;;;12.07;10.20;;;;;19.90;97891.00;;;;2063731;28;20214;-75
2023/03/09 00:49:43;;;;;;;12.20;10.73;;;;;19.90;97895.00;;;;2063787;28;20233;-75
2023/03/09 00:50:44;;;;;;;12.57;11.27;;;;;19.90;97896.00;;;;2055074;28;20600;-75
2023/03/09 00:51:44;;;;;;;11.80;10.33;;;;;19.90;97895.00;;;;2054922;28;21012;-74
2023/03/09 00:52:44;;;;;;;12.67;10.70;;;;;19.90;97897.00;;;;2063694;28;20705;-75
2023/03/09 00:53:45;;;;;;;11.53;10.33;;;;;19.90;97908.00;;;;2071752;28;20218;-75
2023/03/09 00:54:45;;;;;;;11.50;10.30;;;;;19.90;97907.00;;;;2071719;28;20225;-75
2023/03/09 00:55:45;;;;;;;10.40;9.40;;;;;19.90;97908.00;;;;2071437;28;20229;-75
2023/03/09 00:56:46;;;;;;;10.93;9.83;;;;;19.90;97899.00;;;;2071075;28;20280;-75
2023/03/09 00:57:46;;;;;;;11.10;10.00;;;;;19.90;97904.00;;;;2071507;28;20213;-75
2023/03/09 00:58:46;;;;;;;11.63;9.80;;;;;19.90;97901.00;;;;2071459;28;20214;-75
2023/03/09 00:59:47;;;;;;;10.70;9.60;;;;;19.90;97882.00;;;;2071754;28;20206;-75
2023/03/09 01:00:47;;;;;;;11.53;10.33;;;;;19.90;97896.00;;;;2071631;28;20214;-75
2023/03/09 01:01:47;;;;;;;10.10;9.13;;;;;19.90;97905.00;;;;2062753;28;20587;-74
2023/03/09 01:02:48;;;;;;;11.10;9.90;;;;;19.90;97899.00;;;;2062953;28;20683;-74
2023/03/09 01:03:48;;;;;;;10.77;9.63;;;;;19.80;97905.00;;;;2071381;28;20704;-75
2023/03/09 01:04:49;;;;;;;10.97;9.90;;;;;19.80;97901.00;;;;2071898;28;20214;-75
2023/03/09 01:05:49;;;;;;;10.20;8.97;;;;;19.80;97901.00;;;;2062937;28;20219;-75
2023/03/09 01:06:53;;;;;;;9.60;8.70;;;;;19.90;97889.00;;;;2062565;28;20226;-75
2023/03/09 01:07:53;;;;;;;9.05;8.05;;;;;19.90;97892.00;;;;2071564;28;20214;-75
2023/03/09 01:08:54;;;;;;;11.37;9.30;;;;;19.80;97897.00;;;;2071584;28;20256;-75
2023/03/09 01:09:54;;;;;;;10.43;9.20;;;;;19.80;97896.00;;;;2071841;28;20301;-75
2023/03/09 01:10:54;;;;;;;10.83;9.37;;;;;19.80;97893.00;;;;2072265;28;20228;-75
2023/03/09 01:11:55;;;;;;;11.43;10.33;;;;;19.80;97892.00;;;;2073235;28;20218;-75
2023/03/09 01:12:55;;;;;;;9.47;8.53;;;;;19.80;97889.00;;;;2073327;28;20273;-74
2023/03/09 01:13:55;;;;;;;9.57;8.57;;;;;19.80;97895.00;;;;2073416;28;20230;-75
2023/03/09 01:14:56;;;;;;;10.37;8.80;;;;;19.80;97900.00;;;;2073352;28;20611;-75
2023/03/09 01:15:56;;;;;;;9.50;8.47;;;;;19.80;97899.00;;;;2073375;28;20218;-75
2023/03/09 01:16:56;;;;;;;9.33;8.40;;;;;19.80;97904.00;;;;2073119;28;20257;-75
2023/03/09 01:17:57;;;;;;;8.83;7.93;;;;;19.80;97907.00;;;;2073301;28;20229;-75
2023/03/09 01:18:57;;;;;;;9.43;8.53;;;;;19.80;97904.00;;;;2073078;28;20222;-75
2023/03/09 01:19:57;;;;;;;9.63;8.73;;;;;19.80;97892.00;;;;2073317;28;20245;-75
2023/03/09 01:20:58;;;;;;;10.07;8.97;;;;;19.80;97911.00;;;;2073272;28;20222;-75
2023/03/09 01:21:59;;;;;;;9.03;8.13;;;;;19.80;97895.00;;;;2073490;28;20221;-74
2023/03/09 01:22:59;;;;;;;9.77;8.37;;;;;19.80;97906.00;;;;2073197;28;20449;-75
2023/03/09 01:23:59;;;;;;;10.50;8.20;;;;;19.80;97905.00;;;;2073349;28;20583;-75
2023/03/09 01:25:00;;;;;;;8.63;7.73;;;;;19.70;97905.00;;;;2073265;28;20214;-75
2023/03/09 01:26:00;;;;;;;8.97;8.13;;;;;19.80;97906.00;;;;2073128;28;20263;-75
2023/03/09 01:27:00;;;;;;;9.50;8.57;;;;;19.80;97893.00;;;;2073321;28;20250;-75
2023/03/09 01:28:01;;;;;;;8.60;7.70;;;;;19.70;97892.00;;;;2072848;28;20236;-75
2023/03/09 01:29:01;;;;;;;9.37;8.40;;;;;19.70;97904.00;;;;2073146;28;20218;-75
2023/03/09 01:30:02;;;;;;;8.93;8.07;;;;;19.70;97898.00;;;;2073102;28;20242;-75
2023/03/09 01:31:09;;;;;;;9.07;8.17;;;;;19.70;97903.00;;;;2073251;28;20685;-75
2023/03/09 01:32:10;;;;;;;8.98;8.15;;;;;19.70;97911.00;;;;2064166;28;20214;-75
2023/03/09 01:33:10;;;;;;;8.77;7.87;;;;;19.70;97901.00;;;;2064197;28;20716;-75
2023/03/09 01:34:12;;;;;;;8.10;7.30;;;;;19.70;97902.00;;;;2073280;28;20210;-75
2023/03/09 01:35:12;;;;;;;8.13;7.32;;;;;19.70;97899.00;;;;2073090;28;20206;-75
2023/03/09 01:36:14;;;;;;;9.03;8.13;;;;;19.70;97920.00;;;;2072743;28;20588;-75
2023/03/09 01:37:14;;;;;;;9.07;8.02;;;;;19.70;97910.00;;;;2064264;28;20215;-74
2023/03/09 01:38:14;;;;;;;9.13;8.23;;;;;19.70;97929.00;;;;2064156;28;20230;-74
2023/03/09 01:39:15;;;;;;;9.47;8.53;;;;;19.70;97939.00;;;;2073086;28;20809;-75
2023/03/09 01:40:17;;;;;;;8.37;7.57;;;;;19.70;97929.00;;;;2072855;28;20202;-75
2023/03/09 01:41:18;;;;;;;8.43;7.65;;;;;19.70;97942.00;;;;2073451;28;20237;-75
2023/03/09 01:42:18;;;;;;;8.23;7.43;;;;;19.70;97946.00;;;;2064154;28;20221;-75
2023/03/09 01:43:48;;;;;;;9.30;8.40;;;;;19.70;97942.00;;;;2063663;28;20211;-75
2023/03/09 01:45:22;;;;;;;9.32;8.43;;;;;19.70;97946.00;;;;2069992;28;20218;-75
2023/03/09 01:46:33;;;;;;;9.00;8.20;;;;;19.70;97944.00;;;;2072277;28;20199;-75
2023/03/09 01:47:33;;;;;;;9.77;8.43;;;;;19.70;97950.00;;;;2072900;28;20345;-75
2023/03/09 01:48:34;;;;;;;8.93;8.13;;;;;19.70;97949.00;;;;2072606;28;20694;-75
2023/03/09 01:49:36;;;;;;;10.07;9.17;;;;;19.70;97945.00;;;;2072905;28;20701;-75
2023/03/09 01:50:36;;;;;;;9.15;8.20;;;;;19.70;97946.00;;;;2064174;28;20281;-75
2023/03/09 01:51:49;;;;;;;8.93;8.07;;;;;19.60;97945.00;;;;2056192;28;20605;-75
2023/03/09 01:52:49;;;;;;;8.40;7.60;;;;;19.70;97953.00;;;;2065602;28;20234;-75
2023/03/09 01:53:49;;;;;;;9.47;8.57;;;;;19.70;97932.00;;;;2064383;28;20703;-75
2023/03/09 01:54:54;;;;;;;9.80;8.90;;;;;19.70;97917.00;;;;2056163;28;20274;-75
2023/03/09 01:55:54;;;;;;;8.55;7.78;;;;;19.60;97909.00;;;;2064612;28;20215;-75
2023/03/09 01:56:57;;;;;;;9.60;8.67;;;;;19.60;97917.00;;;;2063949;28;20762;-75
2023/03/09 01:57:59;;;;;;;9.30;8.40;;;;;19.60;97932.00;;;;2056206;28;20230;-75
2023/03/09 01:59:00;;;;;;;10.85;8.30;;;;;19.60;97934.00;;;;2064282;28;20277;-75
2023/03/09 02:00:07;;;;;;;12.10;9.10;;;;;19.60;97952.00;;;;2056276;28;20220;-75
2023/03/09 02:01:08;;;;;;;10.02;9.05;;;;;19.60;97911.00;;;;2057119;28;20220;-75
2023/03/09 02:02:09;;;;;;;10.52;9.50;;;;;19.60;97961.00;;;;2064138;28;20503;-75
2023/03/09 02:03:15;;;;;;;9.50;8.50;;;;;19.60;97965.00;;;;2063930;28;20211;-75
2023/03/09 02:04:17;;;;;;;9.55;8.68;;;;;19.60;97968.00;;;;2065009;28;20218;-75
2023/03/09 02:05:21;;;;;;;10.63;9.55;;;;;19.60;97974.00;;;;2064071;28;20214;-74
2023/03/09 02:06:22;;;;;;;10.27;9.27;;;;;19.60;97970.00;;;;2056526;28;20227;-75
2023/03/09 02:07:22;;;;;;;10.27;9.23;;;;;19.60;97967.00;;;;2056206;28;20224;-75
2023/03/09 02:08:23;;;;;;;10.27;9.27;;;;;19.60;97970.00;;;;2055854;28;20272;-75
2023/03/09 02:09:27;;;;;;;9.50;8.60;;;;;19.60;97971.00;;;;2055934;28;20227;-75
2023/03/09 02:10:35;;;;;;;11.35;10.25;;;;;19.60;97975.00;;;;2056505;28;20578;-75
2023/03/09 02:11:35;;;;;;;10.77;9.68;;;;;19.60;97966.00;;;;2047906;28;20220;-75
2023/03/09 02:12:36;;;;;;;10.93;9.90;;;;;19.60;97966.00;;;;2048126;29;20235;-75
2023/03/09 02:13:45;;;;;;;9.23;8.43;;;;;19.60;97978.00;;;;2056037;28;20211;-75
2023/03/09 02:14:45;;;;;;;9.70;8.70;;;;;19.60;97981.00;;;;2056939;28;20216;-75
2023/03/09 02:15:45;;;;;;;10.53;9.40;;;;;19.60;97984.00;;;;2047961;29;20236;-76
2023/03/09 02:16:46;;;;;;;9.47;8.57;;;;;19.60;97982.00;;;;2047893;28;20328;-76
2023/03/09 02:17:46;;;;;;;10.10;9.10;;;;;19.40;97978.00;;;;2063973;28;20282;-76
2023/03/09 02:18:47;;;;;;;9.80;8.90;;;;;19.50;97989.00;;;;2055927;28;20233;-75
2023/03/09 02:20:05;;;;;;;9.93;9.03;;;;;19.60;97993.00;;;;2055991;28;20222;-75
2023/03/09 02:21:23;;;;;;;9.65;8.75;;;;;19.50;98000.00;;;;2064344;28;20270;-75
2023/03/09 02:22:24;;;;;;;10.80;9.80;;;;;19.60;97997.00;;;;2067202;28;20214;-75
2023/03/09 02:23:27;;;;;;;9.43;8.53;;;;;19.50;97999.00;;;;2072585;28;20589;-75
2023/03/09 02:24:36;;;;;;;9.05;8.15;;;;;19.50;98007.00;;;;2072521;28;20210;-75
2023/03/09 02:25:39;;;;;;;9.10;8.20;;;;;19.60;98010.00;;;;2063424;28;20293;-75
2023/03/09 02:26:49;;;;;;;9.70;8.80;;;;;19.60;97998.00;;;;2055365;28;20584;-75
2023/03/09 02:27:51;;;;;;;10.40;9.40;;;;;19.50;97985.00;;;;2056924;28;20302;-75
2023/03/09 02:28:51;;;;;;;9.88;8.98;;;;;19.50;98022.00;;;;2055755;28;20208;-75
2023/03/09 02:29:51;;;;;;;9.70;8.80;;;;;19.50;98021.00;;;;2056388;28;20208;-76
2023/03/09 02:30:52;;;;;;;10.53;9.53;;;;;19.50;98018.00;;;;2063985;28;20238;-75
2023/03/09 02:31:52;;;;;;;9.03;8.20;;;;;19.50;98014.00;;;;2064089;28;20226;-75
2023/03/09 02:33:02;;;;;;;8.70;7.90;;;;;19.50;98031.00;;;;2064016;28;20214;-75
2023/03/09 02:34:02;;;;;;;10.13;9.15;;;;;19.50;98028.00;;;;2072755;28;20210;-75
2023/03/09 02:35:03;;;;;;;9.47;8.57;;;;;19.50;98021.00;;;;2072583;28;20202;-75
2023/03/09 02:36:04;;;;;;;9.03;8.13;;;;;19.50;98022.00;;;;2072490;28;20245;-75
2023/03/09 02:37:35;;;;;;;9.23;8.40;;;;;19.50;98026.00;;;;2072507;28;20464;-75
2023/03/09 02:38:36;;;;;;;9.13;8.27;;;;;19.50;98028.00;;;;2062985;28;20302;-75
2023/03/09 02:39:43;;;;;;;9.37;8.47;;;;;19.50;97989.00;;;;2066838;28;20229;-76
2023/03/09 02:40:43;;;;;;;8.80;8.00;;;;;19.50;97995.00;;;;2055157;28;20224;-75
2023/03/09 02:41:44;;;;;;;9.57;8.67;;;;;19.50;98012.00;;;;2048169;28;20216;-75
2023/03/09 02:42:44;;;;;;;9.10;8.30;;;;;19.50;98015.00;;;;2063785;28;20214;-75
2023/03/09 02:43:47;;;;;;;9.53;8.63;;;;;19.50;98021.00;;;;2072531;28;20245;-75
2023/03/09 02:44:47;;;;;;;9.70;8.80;;;;;19.50;98022.00;;;;2063793;28;20211;-75
2023/03/09 02:45:49;;;;;;;9.03;8.23;;;;;19.50;98024.00;;;;2063941;28;20231;-75
2023/03/09 02:46:49;;;;;;;9.38;8.57;;;;;19.50;98021.00;;;;2072193;28;20214;-75
2023/03/09 02:47:49;;;;;;;9.17;8.37;;;;;19.50;98027.00;;;;2072472;28;20217;-75
2023/03/09 02:48:50;;;;;;;9.13;8.20;;;;;19.50;98028.00;;;;2063606;28;20290;-75
2023/03/09 02:49:50;;;;;;;8.80;8.00;;;;;19.50;98011.00;;;;2063927;28;20199;-75
2023/03/09 02:50:50;;;;;;;8.73;7.93;;;;;19.50;98034.00;;;;2072540;28;20202;-75
2023/03/09 02:51:51;;;;;;;8.80;8.00;;;;;19.50;98039.00;;;;2072540;28;20252;-75
2023/03/09 02:52:51;;;;;;;8.40;7.70;;;;;19.50;98039.00;;;;2071294;28;20206;-75
2023/03/09 02:53:51;;;;;;;9.53;8.63;;;;;19.40;98038.00;;;;2064495;28;20218;-75
2023/03/09 02:54:52;;;;;;;8.60;7.80;;;;;19.40;98042.00;;;;2064508;28;20209;-75
2023/03/09 02:55:52;;;;;;;8.30;7.50;;;;;19.40;98038.00;;;;2064323;28;20227;-75
2023/03/09 02:56:52;;;;;;;8.50;7.70;;;;;19.40;98040.00;;;;2064121;28;20233;-75
2023/03/09 02:57:53;;;;;;;8.23;7.50;;;;;19.40;98033.00;;;;2064224;28;20211;-75
2023/03/09 02:58:53;;;;;;;8.40;7.70;;;;;19.40;98042.00;;;;2064163;28;20289;-76
2023/03/09 02:59:53;;;;;;;8.17;7.37;;;;;19.40;98032.00;;;;2064596;28;20249;-75
2023/03/09 03:00:54;;;;;;;8.30;7.50;;;;;19.40;98051.00;;;;2064311;28;20207;-75
2023/03/09 03:01:54;;;;;;;7.93;7.23;;;;;19.40;98051.00;;;;2064677;28;20214;-75
2023/03/09 03:02:54;;;;;;;8.37;7.60;;;;;19.40;98059.00;;;;2064302;28;20253;-75
2023/03/09 03:03:55;;;;;;;7.87;7.20;;;;;19.40;98061.00;;;;2055589;28;20216;-75
2023/03/09 03:04:55;;;;;;;8.33;7.63;;;;;19.40;98063.00;;;;2055923;28;20239;-75
2023/03/09 03:05:55;;;;;;;8.07;7.37;;;;;19.40;98060.00;;;;2064207;28;20230;-75
2023/03/09 03:06:56;;;;;;;7.70;7.00;;;;;19.40;98044.00;;;;2062840;28;20262;-75
2023/03/09 03:07:56;;;;;;;8.07;7.37;;;;;19.40;98050.00;;;;2063943;28;20321;-75
2023/03/09 03:08:56;;;;;;;7.93;7.23;;;;;19.40;98066.00;;;;2064477;28;20207;-76
2023/03/09 03:09:57;;;;;;;7.13;6.53;;;;;19.40;98062.00;;;;2064204;28;20640;-75
2023/03/09 03:10:57;;;;;;;8.10;7.40;;;;;19.40;98053.00;;;;2064302;28;20302;-75
2023/03/09 03:11:57;;;;;;;7.40;6.80;;;;;19.40;98051.00;;;;2062040;28;20277;-75
2023/03/09 03:12:58;;;;;;;8.80;8.00;;;;;19.40;98049.00;;;;2064225;28;20215;-75
2023/03/09 03:13:59;;;;;;;6.93;6.40;;;;;19.40;98046.00;;;;2064129;28;20294;-75
2023/03/09 03:14:59;;;;;;;8.48;7.75;;;;;19.40;98057.00;;;;2064236;28;20229;-75
2023/03/09 03:16:00;;;;;;;8.30;7.60;;;;;19.40;98056.00;;;;2064107;28;20217;-75
2023/03/09 03:17:00;;;;;;;9.10;8.23;;;;;19.30;98056.00;;;;2064450;28;20237;-75
2023/03/09 03:18:01;;;;;;;7.67;7.07;;;;;19.40;98051.00;;;;2064064;28;20474;-75
2023/03/09 03:19:02;;;;;;;8.50;7.80;;;;;19.40;98053.00;;;;2064084;28;20229;-75
2023/03/09 03:20:05;;;;;;;7.47;6.80;;;;;19.40;98055.00;;;;2064172;28;20277;-75
2023/03/09 03:21:05;;;;;;;8.40;7.60;;;;;19.40;98049.00;;;;2047466;28;20220;-75
2023/03/09 03:22:05;;;;;;;7.73;7.03;;;;;19.40;98056.00;;;;2047833;28;20216;-75
2023/03/09 03:23:05;;;;;;;8.63;7.87;;;;;19.30;98045.00;;;;2064118;28;20218;-75
2023/03/09 03:24:06;;;;;;;7.80;7.10;;;;;19.40;98043.00;;;;2064088;28;20215;-75
2023/03/09 03:25:07;;;;;;;8.70;7.90;;;;;19.40;98056.00;;;;2063951;28;20241;-75
2023/03/09 03:26:07;;;;;;;7.40;6.80;;;;;19.40;98060.00;;;;2064134;28;20214;-75
2023/03/09 03:27:08;;;;;;;7.63;7.00;;;;;19.40;98061.00;;;;2063984;28;20210;-75
2023/03/09 03:28:08;;;;;;;8.17;7.47;;;;;19.40;98072.00;;;;2063844;28;20230;-75
2023/03/09 03:29:09;;;;;;;8.23;7.53;;;;;19.40;98072.00;;;;2064179;28;20284;-75
2023/03/09 03:30:10;;;;;;;8.27;7.57;;;;;19.40;98074.00;;;;2063958;28;20625;-75
2023/03/09 03:31:10;;;;;;;8.88;8.13;;;;;19.30;98077.00;;;;2063894;28;20218;-75
2023/03/09 03:32:11;;;;;;;8.20;7.40;;;;;19.30;98081.00;;;;2064153;28;20738;-75
2023/03/09 03:33:11;;;;;;;8.27;7.57;;;;;19.30;98074.00;;;;2063965;28;20207;-75
2023/03/09 03:34:12;;;;;;;7.40;6.80;;;;;19.30;98075.00;;;;2063827;28;20225;-75
2023/03/09 03:35:12;;;;;;;7.80;7.10;;;;;19.30;98072.00;;;;2064137;28;20211;-75
2023/03/09 03:36:12;;;;;;;8.30;7.60;;;;;19.30;98086.00;;;;2063719;28;20225;-75
2023/03/09 03:37:13;;;;;;;7.80;7.10;;;;;19.30;98086.00;;;;2063974;28;20220;-75
2023/03/09 03:38:14;;;;;;;7.05;6.40;;;;;19.30;98086.00;;;;2063805;28;20294;-75
2023/03/09 03:39:14;;;;;;;8.30;7.50;;;;;19.40;98094.00;;;;2064112;28;20536;-75
2023/03/09 03:40:14;;;;;;;8.30;7.60;;;;;19.30;98103.00;;;;2064208;28;20630;-75
2023/03/09 03:41:15;;;;;;;8.00;7.20;;;;;19.30;98100.00;;;;2064123;28;20202;-75
2023/03/09 03:42:15;;;;;;;8.93;8.13;;;;;19.30;98109.00;;;;2064049;28;20769;-75
2023/03/09 03:43:15;;;;;;;7.83;7.13;;;;;19.10;98112.00;;;;2063974;28;20250;-75
2023/03/09 03:44:16;;;;;;;7.70;7.00;;;;;19.30;98106.00;;;;2063968;28;20211;-75
2023/03/09 03:45:16;;;;;;;7.03;6.43;;;;;19.30;98112.00;;;;2064065;28;20266;-75
2023/03/09 03:46:17;;;;;;;8.13;7.43;;;;;19.30;98096.00;;;;2064151;28;20214;-76
2023/03/09 03:47:17;;;;;;;7.60;7.00;;;;;19.30;98114.00;;;;2063726;28;20285;-75
2023/03/09 03:48:17;;;;;;;7.30;6.70;;;;;19.30;98113.00;;;;2063614;28;20227;-75
2023/03/09 03:49:18;;;;;;;7.87;7.17;;;;;19.30;98104.00;;;;2064064;28;20210;-75
2023/03/09 03:50:18;;;;;;;7.40;6.80;;;;;19.30;98110.00;;;;2064150;28;20241;-75
2023/03/09 03:51:18;;;;;;;7.73;6.93;;;;;19.30;98124.00;;;;2063914;28;20203;-75
2023/03/09 03:52:19;;;;;;;8.40;7.60;;;;;19.30;98127.00;;;;2063917;28;20210;-75
2023/03/09 03:53:19;;;;;;;7.80;7.10;;;;;19.30;98124.00;;;;2068844;28;20202;-75
2023/03/09 03:54:19;;;;;;;7.07;6.47;;;;;19.30;98134.00;;;;2072000;28;20209;-75
2023/03/09 03:55:20;;;;;;;7.97;7.27;;;;;19.30;98132.00;;;;2071913;28;20202;-75
2023/03/09 03:56:20;;;;;;;7.37;6.77;;;;;19.30;98137.00;;;;2072022;28;20214;-75
2023/03/09 03:57:22;;;;;;;7.77;7.07;;;;;19.30;98131.00;;;;2071640;28;20240;-75
2023/03/09 03:58:23;;;;;;;7.90;7.20;;;;;19.30;98129.00;;;;2071603;28;20310;-75
2023/03/09 03:59:23;;;;;;;7.33;6.73;;;;;19.20;98138.00;;;;2072012;28;20297;-75
2023/03/09 04:00:24;;;;;;;7.63;6.93;;;;;19.20;98138.00;;;;2071993;28;20264;-75
2023/03/09 04:01:24;;;;;;;8.23;7.53;;;;;19.30;98139.00;;;;2071974;28;20293;-75
2023/03/09 04:02:25;;;;;;;9.80;7.60;;;;;19.30;98138.00;;;;2072206;28;20456;-75
2023/03/09 04:03:25;;;;;;;7.37;6.73;;;;;19.20;98138.00;;;;2071648;28;20209;-75
2023/03/09 04:04:25;;;;;;;7.60;6.90;;;;;19.20;98146.00;;;;2072032;28;20210;-75
2023/03/09 04:05:26;;;;;;;8.80;8.00;;;;;19.20;98144.00;;;;2071899;28;20234;-75
2023/03/09 04:06:26;;;;;;;8.43;7.70;;;;;19.20;98145.00;;;;2063267;28;20203;-75
2023/03/09 04:07:27;;;;;;;7.83;7.03;;;;;19.20;98125.00;;;;2063099;28;20211;-75
2023/03/09 04:08:28;;;;;;;8.27;7.55;;;;;19.20;98139.00;;;;2071595;28;20571;-75
2023/03/09 04:09:30;;;;;;;7.45;6.78;;;;;19.30;98138.00;;;;2071850;28;20221;-75
2023/03/09 04:10:30;;;;;;;7.65;6.95;;;;;19.20;98132.00;;;;2071933;28;20309;-75
2023/03/09 04:11:31;;;;;;;8.10;7.37;;;;;19.20;98134.00;;;;2071916;28;20214;-75
2023/03/09 04:12:31;;;;;;;8.40;7.70;;;;;19.20;98138.00;;;;2063096;28;20222;-76
2023/03/09 04:13:31;;;;;;;7.93;7.23;;;;;19.20;98147.00;;;;2063103;28;20762;-75
2023/03/09 04:14:32;;;;;;;8.50;7.77;;;;;19.20;98144.00;;;;2071774;28;20590;-75
2023/03/09 04:15:33;;;;;;;8.15;7.45;;;;;19.00;98147.00;;;;2071537;28;20741;-75
2023/03/09 04:16:33;;;;;;;8.67;7.87;;;;;19.20;98153.00;;;;2071786;28;20269;-75
2023/03/09 04:17:34;;;;;;;8.23;7.53;;;;;19.20;98145.00;;;;2071466;28;21062;-75
2023/03/09 04:18:34;;;;;;;7.43;6.73;;;;;19.20;98158.00;;;;2062729;28;20813;-75
2023/03/09 04:19:34;;;;;;;8.40;7.53;;;;;19.20;98158.00;;;;2063155;28;20215;-75
2023/03/09 04:20:35;;;;;;;8.40;7.67;;;;;19.20;98160.00;;;;2071637;28;20313;-75
2023/03/09 04:21:35;;;;;;;8.57;7.80;;;;;19.20;98163.00;;;;2062010;28;20223;-75
2023/03/09 04:22:35;;;;;;;7.90;7.17;;;;;19.20;98170.00;;;;2054961;28;20235;-75
2023/03/09 04:23:36;;;;;;;8.30;7.50;;;;;19.20;98172.00;;;;2063674;28;20221;-75
2023/03/09 04:24:36;;;;;;;7.20;6.60;;;;;19.20;98178.00;;;;2063797;28;20243;-75
2023/03/09 04:25:36;;;;;;;8.57;7.77;;;;;19.20;98184.00;;;;2063486;28;20590;-75
2023/03/09 04:26:37;;;;;;;8.10;7.30;;;;;19.20;98173.00;;;;2063256;28;20617;-75
2023/03/09 04:27:37;;;;;;;8.47;7.73;;;;;19.20;98177.00;;;;2063519;28;20757;-75
2023/03/09 04:28:37;;;;;;;7.80;7.10;;;;;19.10;98185.00;;;;2063335;28;20211;-75
2023/03/09 04:29:39;;;;;;;8.73;7.97;;;;;19.20;98179.00;;;;2063713;28;20641;-75
2023/03/09 04:30:39;;;;;;;8.90;8.10;;;;;19.20;98187.00;;;;2063376;28;20273;-75
2023/03/09 04:31:40;;;;;;;8.20;7.50;;;;;19.20;98188.00;;;;2063585;28;20206;-75
2023/03/09 04:32:40;;;;;;;8.20;7.40;;;;;19.20;98157.00;;;;2062840;28;20308;-75
2023/03/09 04:33:43;;;;;;;8.77;8.00;;;;;19.20;98184.00;;;;2063567;28;20254;-75
2023/03/09 04:34:44;;;;;;;9.05;8.23;;;;;19.20;98195.00;;;;2054943;28;20215;-76
2023/03/09 04:35:44;;;;;;;8.70;7.93;;;;;19.20;98198.00;;;;2055247;28;20213;-75
2023/03/09 04:36:44;;;;;;;8.40;7.60;;;;;19.20;98200.00;;;;2063275;28;20230;-75
2023/03/09 04:37:45;;;;;;;8.57;7.87;;;;;19.20;98209.00;;;;2063441;28;20214;-75
2023/03/09 04:38:45;;;;;;;8.13;7.37;;;;;19.10;98195.00;;;;2063372;28;20228;-75
2023/03/09 04:39:45;;;;;;;8.33;7.60;;;;;18.70;98170.00;;;;2063642;28;20249;-75
2023/03/09 04:40:46;;;;;;;8.07;7.37;;;;;19.20;98186.00;;;;2063743;28;20211;-75
2023/03/09 04:41:46;;;;;;;8.60;7.80;;;;;19.20;98185.00;;;;2063551;28;20206;-75
2023/03/09 04:42:46;;;;;;;8.60;7.80;;;;;19.10;98188.00;;;;2063565;28;20237;-75
2023/03/09 04:43:47;;;;;;;8.03;7.33;;;;;19.10;98189.00;;;;2063528;28;20210;-75
2023/03/09 04:44:47;;;;;;;8.70;7.83;;;;;19.10;98189.00;;;;2063589;28;20327;-75
2023/03/09 04:45:47;;;;;;;9.67;8.77;;;;;19.10;98187.00;;;;2062751;28;20285;-75
2023/03/09 04:46:48;;;;;;;8.80;8.00;;;;;19.10;98182.00;;;;2063552;28;20215;-75
2023/03/09 04:47:48;;;;;;;8.27;7.57;;;;;19.10;98179.00;;;;2063316;28;20219;-75
2023/03/09 04:48:48;;;;;;;8.23;7.53;;;;;19.10;98185.00;;;;2063231;28;20242;-75
2023/03/09 04:49:49;;;;;;;9.10;8.30;;;;;19.10;98188.00;;;;2063697;28;20211;-75
2023/03/09 04:50:49;;;;;;;8.97;8.17;;;;;19.10;98181.00;;;;2063589;28;20214;-75
2023/03/09 04:51:49;;;;;;;8.50;7.70;;;;;19.10;98181.00;;;;2063725;28;20277;-75
2023/03/09 04:52:50;;;;;;;8.47;7.67;;;;;19.10;98183.00;;;;2063339;28;20627;-75
2023/03/09 04:53:50;;;;;;;8.97;8.17;;;;;19.10;98192.00;;;;2063609;28;20590;-75
2023/03/09 04:54:50;;;;;;;8.53;7.73;;;;;19.10;98190.00;;;;2063576;28;20694;-75
2023/03/09 04:55:51;;;;;;;9.40;8.50;;;;;19.10;98203.00;;;;2063612;28;20691;-75
2023/03/09 04:56:51;;;;;;;8.80;8.00;;;;;19.10;98201.00;;;;2063125;28;20219;-75
2023/03/09 04:57:51;;;;;;;8.60;7.90;;;;;19.10;98201.00;;;;2063340;28;20225;-75
2023/03/09 04:58:52;;;;;;;8.90;8.10;;;;;19.10;98203.00;;;;2063376;28;20231;-75
2023/03/09 04:59:52;;;;;;;8.87;7.97;;;;;19.10;98204.00;;;;2063557;28;20203;-75
2023/03/09 05:00:52;;;;;;;9.40;7.77;;;;;19.10;98207.00;;;;2063464;28;20230;-75
2023/03/09 05:01:53;;;;;;;8.80;8.00;;;;;19.10;98149.00;;;;2063740;28;20218;-75
2023/03/09 05:02:53;;;;;;;9.60;8.70;;;;;19.10;98220.00;;;;2063515;28;20214;-75
2023/03/09 05:03:53;;;;;;;9.00;8.20;;;;;19.10;98221.00;;;;2063408;28;20660;-75
2023/03/09 05:04:54;;;;;;;8.90;8.10;;;;;19.10;98227.00;;;;2054802;28;20852;-75
2023/03/09 05:05:54;;;;;;;8.90;8.07;;;;;19.10;98223.00;;;;2055001;28;20226;-75